sensor_id;sensor_type;location;lat;lon;timestamp;P1;durP1;ratioP1;P2;durP2;ratioP2
60718;SDS011;46567;51.660;5.824;2022-12-29T00:02:38;1.8;;;1.7;;
60718;SDS011;46567;51.660;5.824;2022-12-29T00:07:38;3.6;;;1.7;;
60718;SDS011;46567;51.660;5.824;2022-12-29T00:12:38;1.9;;;1.5;;
60718;SDS011;46567;51.660;5.824;2022-12-29T00:17:38;1.7;;;1.4;;
60718;SDS011;46567;51.660;5.824;2022-12-29T00:22:38;1.2;;;1.1;;
60718;SDS011;46567;51.660;5.824;2022-12-29T00:27:38;1.6;;;1.0;;
60718;SDS011;46567;51.660;5.824;2022-12-29T00:32:38;1.5;;;0.8;;
60718;SDS011;46567;51.660;5.824;2022-12-29T00:37:38;1.7;;;0.7;;
60718;SDS011;46567;51.660;5.824;2022-12-29T00:42:38;1.2;;;0.4;;
60718;SDS011;46567;51.660;5.824;2022-12-29T00:52:38;1.2;;;0.4;;
60718;SDS011;46567;51.660;5.824;2022-12-29T00:57:38;1.8;;;1.1;;
60718;SDS011;46567;51.660;5.824;2022-12-29T01:02:38;0.6;;;0.6;;
60718;SDS011;46567;51.660;5.824;2022-12-29T01:07:38;1.2;;;0.8;;
60718;SDS011;46567;51.660;5.824;2022-12-29T01:12:38;2.2;;;1.4;;
60718;SDS011;46567;51.660;5.824;2022-12-29T01:17:38;2.5;;;1.6;;
60718;SDS011;46567;51.660;5.824;2022-12-29T01:22:38;2.8;;;1.6;;
60718;SDS011;46567;51.660;5.824;2022-12-29T01:27:38;1.8;;;1.5;;
60718;SDS011;46567;51.660;5.824;2022-12-29T01:32:38;2.2;;;1.5;;
60718;SDS011;46567;51.660;5.824;2022-12-29T01:37:38;2.6;;;1.2;;
60718;SDS011;46567;51.660;5.824;2022-12-29T01:42:38;2.4;;;1.2;;
60718;SDS011;46567;51.660;5.824;2022-12-29T01:47:38;1.0;;;0.9;;
60718;SDS011;46567;51.660;5.824;2022-12-29T01:52:38;1.3;;;1.0;;
60718;SDS011;46567;51.660;5.824;2022-12-29T01:57:38;1.7;;;1.0;;
60718;SDS011;46567;51.660;5.824;2022-12-29T02:02:38;1.5;;;0.7;;
60718;SDS011;46567;51.660;5.824;2022-12-29T02:07:38;1.6;;;0.8;;
60718;SDS011;46567;51.660;5.824;2022-12-29T02:12:38;1.0;;;0.8;;
60718;SDS011;46567;51.660;5.824;2022-12-29T02:18:03;3.1;;;0.8;;
60718;SDS011;46567;51.660;5.824;2022-12-29T02:25:28;1.3;;;0.7;;
60718;SDS011;46567;51.660;5.824;2022-12-29T02:31:01;0.8;;;0.7;;
60718;SDS011;46567;51.660;5.824;2022-12-29T02:35:42;1.7;;;0.6;;
60718;SDS011;46567;51.660;5.824;2022-12-29T02:40:39;3.1;;;0.8;;
60718;SDS011;46567;51.660;5.824;2022-12-29T02:44:56;1.5;;;0.8;;
60718;SDS011;46567;51.660;5.824;2022-12-29T02:49:02;1.5;;;0.8;;
60718;SDS011;46567;51.660;5.824;2022-12-29T02:52:42;2.1;;;0.8;;
60718;SDS011;46567;51.660;5.824;2022-12-29T02:57:38;2.1;;;0.8;;
60718;SDS011;46567;51.660;5.824;2022-12-29T03:03:04;2.0;;;0.6;;
60718;SDS011;46567;51.660;5.824;2022-12-29T03:09:03;1.2;;;0.6;;
60718;SDS011;46567;51.660;5.824;2022-12-29T03:12:39;1.3;;;0.6;;
60718;SDS011;46567;51.660;5.824;2022-12-29T03:17:46;1.8;;;0.6;;
60718;SDS011;46567;51.660;5.824;2022-12-29T03:22:39;1.8;;;0.7;;
60718;SDS011;46567;51.660;5.824;2022-12-29T03:27:42;2.5;;;0.8;;
60718;SDS011;46567;51.660;5.824;2022-12-29T03:32:42;1.9;;;0.7;;
60718;SDS011;46567;51.660;5.824;2022-12-29T03:37:41;2.4;;;0.8;;
60718;SDS011;46567;51.660;5.824;2022-12-29T03:42:38;3.1;;;1.0;;
60718;SDS011;46567;51.660;5.824;2022-12-29T03:47:38;2.4;;;0.8;;
60718;SDS011;46567;51.660;5.824;2022-12-29T03:52:38;2.1;;;0.7;;
60718;SDS011;46567;51.660;5.824;2022-12-29T03:57:38;1.8;;;0.7;;
60718;SDS011;46567;51.660;5.824;2022-12-29T04:02:38;3.0;;;0.7;;
60718;SDS011;46567;51.660;5.824;2022-12-29T04:07:38;2.0;;;0.7;;
60718;SDS011;46567;51.660;5.824;2022-12-29T04:12:38;1.9;;;0.6;;
60718;SDS011;46567;51.660;5.824;2022-12-29T04:17:38;2.3;;;0.7;;
60718;SDS011;46567;51.660;5.824;2022-12-29T04:22:38;4.5;;;0.7;;
60718;SDS011;46567;51.660;5.824;2022-12-29T04:27:38;1.3;;;1.1;;
60718;SDS011;46567;51.660;5.824;2022-12-29T04:32:38;3.1;;;1.0;;
60718;SDS011;46567;51.660;5.824;2022-12-29T04:37:38;2.6;;;0.7;;
60718;SDS011;46567;51.660;5.824;2022-12-29T04:42:38;1.7;;;0.5;;
60718;SDS011;46567;51.660;5.824;2022-12-29T04:47:38;2.2;;;0.6;;
60718;SDS011;46567;51.660;5.824;2022-12-29T04:52:38;3.0;;;0.7;;
60718;SDS011;46567;51.660;5.824;2022-12-29T04:57:38;1.4;;;0.4;;
60718;SDS011;46567;51.660;5.824;2022-12-29T05:02:38;2.8;;;0.6;;
60718;SDS011;46567;51.660;5.824;2022-12-29T05:07:38;3.2;;;0.6;;
60718;SDS011;46567;51.660;5.824;2022-12-29T05:12:38;1.5;;;0.8;;
60718;SDS011;46567;51.660;5.824;2022-12-29T05:17:38;2.5;;;0.6;;
60718;SDS011;46567;51.660;5.824;2022-12-29T05:22:38;3.4;;;0.8;;
60718;SDS011;46567;51.660;5.824;2022-12-29T05:27:38;3.2;;;0.7;;
60718;SDS011;46567;51.660;5.824;2022-12-29T05:32:38;6.2;;;0.8;;
60718;SDS011;46567;51.660;5.824;2022-12-29T05:37:38;3.1;;;0.7;;
60718;SDS011;46567;51.660;5.824;2022-12-29T05:42:38;2.8;;;0.9;;
60718;SDS011;46567;51.660;5.824;2022-12-29T05:47:38;3.1;;;0.9;;
60718;SDS011;46567;51.660;5.824;2022-12-29T05:52:38;3.0;;;0.8;;
60718;SDS011;46567;51.660;5.824;2022-12-29T05:57:38;7.7;;;0.9;;
60718;SDS011;46567;51.660;5.824;2022-12-29T06:02:38;5.5;;;1.2;;
60718;SDS011;46567;51.660;5.824;2022-12-29T06:07:38;2.5;;;0.7;;
60718;SDS011;46567;51.660;5.824;2022-12-29T06:12:38;3.2;;;0.6;;
60718;SDS011;46567;51.660;5.824;2022-12-29T06:17:38;2.9;;;0.8;;
60718;SDS011;46567;51.660;5.824;2022-12-29T06:22:38;3.2;;;0.8;;
60718;SDS011;46567;51.660;5.824;2022-12-29T06:27:38;3.3;;;0.7;;
60718;SDS011;46567;51.660;5.824;2022-12-29T06:32:38;5.4;;;0.9;;
60718;SDS011;46567;51.660;5.824;2022-12-29T06:37:38;4.0;;;0.6;;
60718;SDS011;46567;51.660;5.824;2022-12-29T06:42:38;5.8;;;1.0;;
60718;SDS011;46567;51.660;5.824;2022-12-29T06:47:38;5.2;;;0.8;;
60718;SDS011;46567;51.660;5.824;2022-12-29T06:52:38;3.2;;;0.7;;
60718;SDS011;46567;51.660;5.824;2022-12-29T06:57:38;1.5;;;0.6;;
60718;SDS011;46567;51.660;5.824;2022-12-29T07:02:38;2.7;;;0.8;;
60718;SDS011;46567;51.660;5.824;2022-12-29T07:07:38;6.9;;;1.0;;
60718;SDS011;46567;51.660;5.824;2022-12-29T07:12:38;3.0;;;0.8;;
60718;SDS011;46567;51.660;5.824;2022-12-29T07:17:38;6.3;;;1.2;;
60718;SDS011;46567;51.660;5.824;2022-12-29T07:22:38;3.6;;;0.9;;
60718;SDS011;46567;51.660;5.824;2022-12-29T07:27:38;7.5;;;0.9;;
60718;SDS011;46567;51.660;5.824;2022-12-29T07:32:38;6.7;;;1.1;;
60718;SDS011;46567;51.660;5.824;2022-12-29T07:37:38;4.6;;;0.7;;
60718;SDS011;46567;51.660;5.824;2022-12-29T07:42:38;3.8;;;0.9;;
60718;SDS011;46567;51.660;5.824;2022-12-29T07:47:38;4.5;;;1.0;;
60718;SDS011;46567;51.660;5.824;2022-12-29T07:52:38;7.1;;;1.1;;
60718;SDS011;46567;51.660;5.824;2022-12-29T07:57:38;4.0;;;1.3;;
60718;SDS011;46567;51.660;5.824;2022-12-29T08:02:38;5.7;;;1.4;;
60718;SDS011;46567;51.660;5.824;2022-12-29T08:07:38;4.6;;;0.8;;
60718;SDS011;46567;51.660;5.824;2022-12-29T08:12:38;5.5;;;1.4;;
60718;SDS011;46567;51.660;5.824;2022-12-29T08:17:38;8.0;;;1.4;;
60718;SDS011;46567;51.660;5.824;2022-12-29T08:22:38;6.1;;;1.1;;
60718;SDS011;46567;51.660;5.824;2022-12-29T08:27:38;6.1;;;1.0;;
60718;SDS011;46567;51.660;5.824;2022-12-29T08:32:38;6.1;;;1.2;;
60718;SDS011;46567;51.660;5.824;2022-12-29T08:37:38;6.5;;;1.3;;
60718;SDS011;46567;51.660;5.824;2022-12-29T08:42:38;6.6;;;1.3;;
60718;SDS011;46567;51.660;5.824;2022-12-29T08:47:38;5.9;;;1.0;;
60718;SDS011;46567;51.660;5.824;2022-12-29T08:52:38;6.9;;;1.7;;
60718;SDS011;46567;51.660;5.824;2022-12-29T08:57:38;5.1;;;0.8;;
60718;SDS011;46567;51.660;5.824;2022-12-29T09:02:38;6.6;;;1.2;;
60718;SDS011;46567;51.660;5.824;2022-12-29T09:07:38;6.1;;;1.1;;
60718;SDS011;46567;51.660;5.824;2022-12-29T09:12:38;7.4;;;1.5;;
60718;SDS011;46567;51.660;5.824;2022-12-29T09:17:38;7.3;;;1.1;;
60718;SDS011;46567;51.660;5.824;2022-12-29T09:22:38;4.2;;;1.1;;
60718;SDS011;46567;51.660;5.824;2022-12-29T09:27:38;8.8;;;1.0;;
60718;SDS011;46567;51.660;5.824;2022-12-29T09:32:38;7.0;;;1.0;;
60718;SDS011;46567;51.660;5.824;2022-12-29T09:37:38;4.5;;;1.1;;
60718;SDS011;46567;51.660;5.824;2022-12-29T09:43:05;5.2;;;1.0;;
60718;SDS011;46567;51.660;5.824;2022-12-29T09:47:38;4.6;;;0.9;;
60718;SDS011;46567;51.660;5.824;2022-12-29T09:52:50;4.5;;;1.0;;
60718;SDS011;46567;51.660;5.824;2022-12-29T09:57:41;5.9;;;1.2;;
60718;SDS011;46567;51.660;5.824;2022-12-29T10:02:40;7.7;;;1.0;;
60718;SDS011;46567;51.660;5.824;2022-12-29T10:07:45;4.1;;;1.1;;
60718;SDS011;46567;51.660;5.824;2022-12-29T10:13:27;5.1;;;1.1;;
60718;SDS011;46567;51.660;5.824;2022-12-29T10:19:02;5.8;;;1.4;;
60718;SDS011;46567;51.660;5.824;2022-12-29T10:23:52;5.1;;;1.1;;
60718;SDS011;46567;51.660;5.824;2022-12-29T10:27:38;4.8;;;1.0;;
60718;SDS011;46567;51.660;5.824;2022-12-29T10:32:39;4.9;;;1.0;;
60718;SDS011;46567;51.660;5.824;2022-12-29T10:37:43;4.4;;;0.9;;
60718;SDS011;46567;51.660;5.824;2022-12-29T10:42:39;7.6;;;1.2;;
60718;SDS011;46567;51.660;5.824;2022-12-29T10:47:42;5.3;;;1.0;;
60718;SDS011;46567;51.660;5.824;2022-12-29T10:57:40;4.0;;;0.9;;
60718;SDS011;46567;51.660;5.824;2022-12-29T11:02:59;6.7;;;1.2;;
60718;SDS011;46567;51.660;5.824;2022-12-29T11:07:38;5.7;;;1.0;;
60718;SDS011;46567;51.660;5.824;2022-12-29T11:12:38;6.6;;;1.2;;
60718;SDS011;46567;51.660;5.824;2022-12-29T11:17:42;5.2;;;1.8;;
60718;SDS011;46567;51.660;5.824;2022-12-29T11:22:38;3.6;;;1.3;;
60718;SDS011;46567;51.660;5.824;2022-12-29T11:27:38;6.3;;;1.1;;
60718;SDS011;46567;51.660;5.824;2022-12-29T11:32:38;5.2;;;1.2;;
60718;SDS011;46567;51.660;5.824;2022-12-29T11:37:39;4.1;;;1.0;;
60718;SDS011;46567;51.660;5.824;2022-12-29T11:42:39;4.2;;;1.0;;
60718;SDS011;46567;51.660;5.824;2022-12-29T11:47:38;6.5;;;1.1;;
60718;SDS011;46567;51.660;5.824;2022-12-29T11:52:38;5.7;;;1.2;;
60718;SDS011;46567;51.660;5.824;2022-12-29T11:57:38;9.1;;;1.6;;
60718;SDS011;46567;51.660;5.824;2022-12-29T12:02:45;9.4;;;1.6;;
60718;SDS011;46567;51.660;5.824;2022-12-29T12:07:40;5.9;;;1.5;;
60718;SDS011;46567;51.660;5.824;2022-12-29T12:12:46;5.5;;;1.2;;
60718;SDS011;46567;51.660;5.824;2022-12-29T12:17:40;9.7;;;1.7;;
60718;SDS011;46567;51.660;5.824;2022-12-29T12:22:38;7.8;;;1.5;;
60718;SDS011;46567;51.660;5.824;2022-12-29T12:27:46;6.7;;;1.7;;
60718;SDS011;46567;51.660;5.824;2022-12-29T12:32:44;7.0;;;1.4;;
60718;SDS011;46567;51.660;5.824;2022-12-29T12:38:06;11.5;;;1.9;;
60718;SDS011;46567;51.660;5.824;2022-12-29T12:43:39;6.4;;;1.4;;
60718;SDS011;46567;51.660;5.824;2022-12-29T12:50:11;10.8;;;1.8;;
60718;SDS011;46567;51.660;5.824;2022-12-29T12:56:32;9.3;;;1.6;;
60718;SDS011;46567;51.660;5.824;2022-12-29T13:00:27;10.5;;;1.7;;
60718;SDS011;46567;51.660;5.824;2022-12-29T13:05:34;6.5;;;1.5;;
60718;SDS011;46567;51.660;5.824;2022-12-29T13:11:53;4.0;;;1.0;;
60718;SDS011;46567;51.660;5.824;2022-12-29T13:17:13;8.0;;;1.4;;
60718;SDS011;46567;51.660;5.824;2022-12-29T13:22:26;10.9;;;1.7;;
60718;SDS011;46567;51.660;5.824;2022-12-29T13:27:22;4.8;;;1.2;;
60718;SDS011;46567;51.660;5.824;2022-12-29T13:31:32;8.6;;;1.8;;
60718;SDS011;46567;51.660;5.824;2022-12-29T13:36:37;4.9;;;1.1;;
60718;SDS011;46567;51.660;5.824;2022-12-29T13:39:43;5.3;;;1.3;;
60718;SDS011;46567;51.660;5.824;2022-12-29T13:42:38;7.7;;;1.5;;
60718;SDS011;46567;51.660;5.824;2022-12-29T13:47:39;5.7;;;1.3;;
60718;SDS011;46567;51.660;5.824;2022-12-29T13:53:01;6.9;;;1.7;;
60718;SDS011;46567;51.660;5.824;2022-12-29T13:57:53;7.3;;;1.2;;
60718;SDS011;46567;51.660;5.824;2022-12-29T14:03:11;7.7;;;1.5;;
60718;SDS011;46567;51.660;5.824;2022-12-29T14:07:38;7.2;;;1.7;;
60718;SDS011;46567;51.660;5.824;2022-12-29T14:12:39;7.5;;;1.8;;
60718;SDS011;46567;51.660;5.824;2022-12-29T14:17:39;7.9;;;1.6;;
60718;SDS011;46567;51.660;5.824;2022-12-29T14:22:38;4.2;;;1.3;;
60718;SDS011;46567;51.660;5.824;2022-12-29T14:27:52;6.6;;;1.6;;
60718;SDS011;46567;51.660;5.824;2022-12-29T14:32:38;5.3;;;1.2;;
60718;SDS011;46567;51.660;5.824;2022-12-29T14:37:38;5.6;;;1.2;;
60718;SDS011;46567;51.660;5.824;2022-12-29T14:42:38;5.6;;;1.5;;
60718;SDS011;46567;51.660;5.824;2022-12-29T14:47:41;3.2;;;1.1;;
60718;SDS011;46567;51.660;5.824;2022-12-29T14:52:41;7.8;;;1.6;;
60718;SDS011;46567;51.660;5.824;2022-12-29T14:57:39;5.3;;;1.4;;
60718;SDS011;46567;51.660;5.824;2022-12-29T15:02:49;6.5;;;2.3;;
60718;SDS011;46567;51.660;5.824;2022-12-29T15:07:38;5.6;;;1.7;;
60718;SDS011;46567;51.660;5.824;2022-12-29T15:12:39;5.7;;;1.6;;
60718;SDS011;46567;51.660;5.824;2022-12-29T15:17:38;9.3;;;1.5;;
60718;SDS011;46567;51.660;5.824;2022-12-29T15:22:38;5.5;;;1.3;;
60718;SDS011;46567;51.660;5.824;2022-12-29T15:27:38;4.8;;;1.5;;
60718;SDS011;46567;51.660;5.824;2022-12-29T15:32:46;7.2;;;1.8;;
60718;SDS011;46567;51.660;5.824;2022-12-29T15:37:38;5.2;;;1.5;;
60718;SDS011;46567;51.660;5.824;2022-12-29T15:43:09;4.1;;;1.3;;
60718;SDS011;46567;51.660;5.824;2022-12-29T15:47:38;5.5;;;1.4;;
60718;SDS011;46567;51.660;5.824;2022-12-29T15:52:38;3.5;;;1.7;;
60718;SDS011;46567;51.660;5.824;2022-12-29T15:57:43;5.1;;;1.3;;
60718;SDS011;46567;51.660;5.824;2022-12-29T16:02:38;5.0;;;1.0;;
60718;SDS011;46567;51.660;5.824;2022-12-29T16:07:38;5.2;;;0.9;;
60718;SDS011;46567;51.660;5.824;2022-12-29T16:12:38;1.5;;;0.9;;
60718;SDS011;46567;51.660;5.824;2022-12-29T16:17:49;4.3;;;1.0;;
60718;SDS011;46567;51.660;5.824;2022-12-29T16:22:38;3.7;;;1.0;;
60718;SDS011;46567;51.660;5.824;2022-12-29T16:27:43;4.1;;;1.1;;
60718;SDS011;46567;51.660;5.824;2022-12-29T16:32:44;3.9;;;0.9;;
60718;SDS011;46567;51.660;5.824;2022-12-29T16:37:38;4.5;;;1.0;;
60718;SDS011;46567;51.660;5.824;2022-12-29T16:42:46;3.5;;;1.0;;
60718;SDS011;46567;51.660;5.824;2022-12-29T16:47:38;4.3;;;1.0;;
60718;SDS011;46567;51.660;5.824;2022-12-29T16:52:38;4.5;;;1.0;;
60718;SDS011;46567;51.660;5.824;2022-12-29T16:57:38;3.1;;;1.0;;
60718;SDS011;46567;51.660;5.824;2022-12-29T17:02:38;2.6;;;0.9;;
60718;SDS011;46567;51.660;5.824;2022-12-29T17:07:39;4.4;;;0.8;;
60718;SDS011;46567;51.660;5.824;2022-12-29T17:12:38;3.1;;;1.0;;
60718;SDS011;46567;51.660;5.824;2022-12-29T17:17:40;5.8;;;1.2;;
60718;SDS011;46567;51.660;5.824;2022-12-29T17:22:38;3.7;;;0.8;;
60718;SDS011;46567;51.660;5.824;2022-12-29T17:27:40;4.6;;;1.0;;
60718;SDS011;46567;51.660;5.824;2022-12-29T17:32:38;5.7;;;1.4;;
60718;SDS011;46567;51.660;5.824;2022-12-29T17:37:38;4.4;;;1.3;;
60718;SDS011;46567;51.660;5.824;2022-12-29T17:42:39;7.7;;;1.4;;
60718;SDS011;46567;51.660;5.824;2022-12-29T17:47:38;7.6;;;1.7;;
60718;SDS011;46567;51.660;5.824;2022-12-29T17:52:38;3.8;;;1.2;;
60718;SDS011;46567;51.660;5.824;2022-12-29T17:57:38;6.7;;;1.6;;
60718;SDS011;46567;51.660;5.824;2022-12-29T18:02:38;4.9;;;1.4;;
60718;SDS011;46567;51.660;5.824;2022-12-29T18:07:38;10.2;;;1.4;;
60718;SDS011;46567;51.660;5.824;2022-12-29T18:12:41;9.7;;;1.6;;
60718;SDS011;46567;51.660;5.824;2022-12-29T18:17:38;7.9;;;1.8;;
60718;SDS011;46567;51.660;5.824;2022-12-29T18:22:38;7.4;;;1.6;;
60718;SDS011;46567;51.660;5.824;2022-12-29T18:27:38;12.5;;;1.6;;
60718;SDS011;46567;51.660;5.824;2022-12-29T18:32:38;7.8;;;1.7;;
60718;SDS011;46567;51.660;5.824;2022-12-29T18:37:38;6.6;;;1.5;;
60718;SDS011;46567;51.660;5.824;2022-12-29T18:42:38;7.9;;;1.7;;
60718;SDS011;46567;51.660;5.824;2022-12-29T18:47:38;8.1;;;1.5;;
60718;SDS011;46567;51.660;5.824;2022-12-29T18:52:38;6.7;;;1.4;;
60718;SDS011;46567;51.660;5.824;2022-12-29T18:57:38;7.2;;;1.5;;
60718;SDS011;46567;51.660;5.824;2022-12-29T19:02:39;9.5;;;2.6;;
60718;SDS011;46567;51.660;5.824;2022-12-29T19:07:38;10.9;;;2.3;;
60718;SDS011;46567;51.660;5.824;2022-12-29T19:12:38;6.3;;;2.0;;
60718;SDS011;46567;51.660;5.824;2022-12-29T19:17:38;10.6;;;2.0;;
60718;SDS011;46567;51.660;5.824;2022-12-29T19:22:38;12.2;;;2.3;;
60718;SDS011;46567;51.660;5.824;2022-12-29T19:27:38;10.7;;;2.9;;
60718;SDS011;46567;51.660;5.824;2022-12-29T19:32:38;10.5;;;2.4;;
60718;SDS011;46567;51.660;5.824;2022-12-29T19:37:38;12.1;;;3.1;;
60718;SDS011;46567;51.660;5.824;2022-12-29T19:42:38;9.0;;;2.5;;
60718;SDS011;46567;51.660;5.824;2022-12-29T19:47:38;9.0;;;2.3;;
60718;SDS011;46567;51.660;5.824;2022-12-29T19:52:38;10.9;;;2.2;;
60718;SDS011;46567;51.660;5.824;2022-12-29T19:57:38;10.0;;;2.2;;
60718;SDS011;46567;51.660;5.824;2022-12-29T20:02:38;11.8;;;2.5;;
60718;SDS011;46567;51.660;5.824;2022-12-29T20:07:38;8.6;;;2.2;;
60718;SDS011;46567;51.660;5.824;2022-12-29T20:12:38;9.8;;;2.2;;
60718;SDS011;46567;51.660;5.824;2022-12-29T20:17:38;13.9;;;2.6;;
60718;SDS011;46567;51.660;5.824;2022-12-29T20:22:38;12.0;;;3.0;;
60718;SDS011;46567;51.660;5.824;2022-12-29T20:27:38;10.5;;;2.9;;
60718;SDS011;46567;51.660;5.824;2022-12-29T20:32:38;10.4;;;2.8;;
60718;SDS011;46567;51.660;5.824;2022-12-29T20:37:38;7.7;;;2.7;;
60718;SDS011;46567;51.660;5.824;2022-12-29T20:42:38;10.9;;;2.9;;
60718;SDS011;46567;51.660;5.824;2022-12-29T20:47:38;8.7;;;1.9;;
60718;SDS011;46567;51.660;5.824;2022-12-29T20:52:38;13.5;;;2.2;;
60718;SDS011;46567;51.660;5.824;2022-12-29T20:57:38;12.7;;;2.2;;
60718;SDS011;46567;51.660;5.824;2022-12-29T21:02:38;7.8;;;1.9;;
60718;SDS011;46567;51.660;5.824;2022-12-29T21:07:38;9.9;;;2.2;;
60718;SDS011;46567;51.660;5.824;2022-12-29T21:12:38;10.9;;;2.2;;
60718;SDS011;46567;51.660;5.824;2022-12-29T21:17:38;10.1;;;2.0;;
60718;SDS011;46567;51.660;5.824;2022-12-29T21:22:38;8.6;;;2.2;;
60718;SDS011;46567;51.660;5.824;2022-12-29T21:27:38;8.5;;;2.0;;
60718;SDS011;46567;51.660;5.824;2022-12-29T21:32:38;11.0;;;2.1;;
60718;SDS011;46567;51.660;5.824;2022-12-29T21:37:38;7.0;;;1.5;;
60718;SDS011;46567;51.660;5.824;2022-12-29T21:42:39;11.4;;;1.8;;
60718;SDS011;46567;51.660;5.824;2022-12-29T21:47:38;6.2;;;1.6;;
60718;SDS011;46567;51.660;5.824;2022-12-29T21:52:38;9.6;;;1.7;;
60718;SDS011;46567;51.660;5.824;2022-12-29T21:57:38;7.8;;;1.5;;
60718;SDS011;46567;51.660;5.824;2022-12-29T22:02:38;6.2;;;1.9;;
60718;SDS011;46567;51.660;5.824;2022-12-29T22:07:38;7.2;;;1.8;;
60718;SDS011;46567;51.660;5.824;2022-12-29T22:12:38;7.6;;;1.5;;
60718;SDS011;46567;51.660;5.824;2022-12-29T22:17:38;7.7;;;1.7;;
60718;SDS011;46567;51.660;5.824;2022-12-29T22:22:38;8.7;;;1.7;;
60718;SDS011;46567;51.660;5.824;2022-12-29T22:27:38;9.2;;;1.7;;
60718;SDS011;46567;51.660;5.824;2022-12-29T22:32:38;10.8;;;2.1;;
60718;SDS011;46567;51.660;5.824;2022-12-29T22:37:39;7.3;;;1.7;;
60718;SDS011;46567;51.660;5.824;2022-12-29T22:42:38;8.8;;;2.0;;
60718;SDS011;46567;51.660;5.824;2022-12-29T22:47:38;9.2;;;2.1;;
60718;SDS011;46567;51.660;5.824;2022-12-29T22:52:38;11.1;;;2.0;;
60718;SDS011;46567;51.660;5.824;2022-12-29T22:57:38;8.2;;;1.8;;
60718;SDS011;46567;51.660;5.824;2022-12-29T23:02:38;10.0;;;2.0;;
60718;SDS011;46567;51.660;5.824;2022-12-29T23:07:38;9.7;;;1.7;;
60718;SDS011;46567;51.660;5.824;2022-12-29T23:12:38;7.5;;;1.6;;
60718;SDS011;46567;51.660;5.824;2022-12-29T23:17:38;11.5;;;1.9;;
60718;SDS011;46567;51.660;5.824;2022-12-29T23:22:38;4.8;;;1.5;;
60718;SDS011;46567;51.660;5.824;2022-12-29T23:27:38;7.4;;;1.4;;
60718;SDS011;46567;51.660;5.824;2022-12-29T23:32:38;8.2;;;2.1;;
60718;SDS011;46567;51.660;5.824;2022-12-29T23:37:38;8.5;;;2.1;;
60718;SDS011;46567;51.660;5.824;2022-12-29T23:42:38;8.5;;;2.4;;
60718;SDS011;46567;51.660;5.824;2022-12-29T23:47:38;6.5;;;1.9;;
60718;SDS011;46567;51.660;5.824;2022-12-29T23:52:38;7.5;;;1.7;;
60718;SDS011;46567;51.660;5.824;2022-12-29T23:57:38;9.0;;;2.0;;
